Time;durP1;ratioP1;P1;durP2;ratioP2;P2;SDS_P1;SDS_P2;PMS_P1;PMS_P2;Temp;Humidity;BMP_temperature;BMP_pressure;BME280_temperature;BME280_humidity;BME280_pressure;Samples;Min_cycle;Max_cycle;Signal;HPM_P1;HPM_P2
2022/08/07 00:00:38;;;;;;;1.67;1.60;;;;;;;20.74;79.85;96018.50;4291573;33;20332;-59
2022/08/07 00:03:04;;;;;;;1.57;1.53;;;;;;;20.73;80.02;96019.62;4275461;33;20225;-59
2022/08/07 00:05:29;;;;;;;1.73;1.63;;;;;;;20.73;79.56;96018.84;4294246;33;20190;-59
2022/08/07 00:07:54;;;;;;;1.43;1.43;;;;;;;20.72;79.53;96017.25;4285033;33;20191;-59
2022/08/07 00:10:22;;;;;;;2.53;2.20;;;;;;;20.82;78.93;96011.38;4266354;33;20182;-59
2022/08/07 00:12:48;;;;;;;1.70;1.67;;;;;;;20.70;78.66;96020.28;4284970;33;20212;-60
2022/08/07 00:15:13;;;;;;;1.70;1.67;;;;;;;20.43;79.63;96015.63;4283362;33;20194;-59
2022/08/07 00:17:39;;;;;;;1.63;1.53;;;;;;;20.68;79.24;96016.38;4273188;33;20209;-59
2022/08/07 00:20:05;;;;;;;1.20;1.20;;;;;;;20.71;79.20;96018.38;4298104;33;20262;-58
2022/08/07 00:22:31;;;;;;;2.83;1.33;;;;;;;20.65;79.19;96019.72;4287525;33;20197;-60
2022/08/07 00:24:56;;;;;;;1.63;1.60;;;;;;;20.59;79.10;96019.97;4274745;33;20282;-58
2022/08/07 00:27:21;;;;;;;1.70;1.70;;;;;;;20.74;78.35;96021.19;4274940;33;20281;-59
2022/08/07 00:29:47;;;;;;;2.43;2.27;;;;;;;20.67;78.15;96023.66;4289557;33;20197;-59
2022/08/07 00:32:13;;;;;;;2.17;2.07;;;;;;;20.54;78.41;96028.31;4287838;33;20242;-59
2022/08/07 00:34:39;;;;;;;1.17;1.17;;;;;;;20.53;78.17;96026.72;4280537;33;20304;-59
2022/08/07 00:37:04;;;;;;;1.93;1.80;;;;;;;20.69;78.26;96034.12;4288396;33;20187;-59
2022/08/07 00:39:30;;;;;;;1.47;1.47;;;;;;;20.80;77.66;96035.19;4289037;33;20187;-59
2022/08/07 00:41:57;;;;;;;3.70;2.13;;;;;;;20.82;77.04;96030.25;4274196;33;20205;-59
2022/08/07 00:44:24;;;;;;;1.33;1.33;;;;;;;20.65;77.87;96014.34;4287132;33;20198;-59
2022/08/07 00:46:49;;;;;;;1.90;1.73;;;;;;;20.48;77.48;96012.69;4295988;33;20266;-60
2022/08/07 00:49:15;;;;;;;1.43;1.03;;;;;;;20.66;76.65;96008.59;4294500;33;20246;-59
2022/08/07 00:51:41;;;;;;;2.10;2.00;;;;;;;20.67;76.62;96012.09;4287114;33;20186;-59
2022/08/07 00:54:07;;;;;;;1.73;1.63;;;;;;;20.64;76.67;96010.06;4291338;33;20194;-59
2022/08/07 00:56:33;;;;;;;1.13;1.13;;;;;;;20.59;76.76;96011.09;4287001;33;20230;-59
2022/08/07 00:58:59;;;;;;;1.00;1.00;;;;;;;20.72;77.11;96009.94;4279475;33;20186;-59
2022/08/07 01:01:25;;;;;;;1.60;1.60;;;;;;;20.81;76.74;96009.81;4300223;33;20220;-59
2022/08/07 01:03:50;;;;;;;1.30;1.30;;;;;;;20.64;75.48;95997.38;4286569;33;20194;-59
2022/08/07 01:06:17;;;;;;;1.03;1.03;;;;;;;20.42;75.75;96001.34;4276311;33;20221;-58
2022/08/07 01:08:44;;;;;;;2.93;1.70;;;;;;;20.54;75.94;96006.75;4286064;33;20245;-59
2022/08/07 01:11:11;;;;;;;1.73;1.60;;;;;;;20.50;75.95;96002.34;4294670;33;20313;-59
2022/08/07 01:13:37;;;;;;;1.70;1.60;;;;;;;20.34;75.86;96007.63;4288966;33;20194;-59
2022/08/07 01:16:06;;;;;;;0.80;0.80;;;;;;;20.33;75.98;95997.19;4286473;33;20242;-59
2022/08/07 01:18:32;;;;;;;0.90;0.90;;;;;;;20.35;76.13;95998.44;4283100;33;20187;-59
2022/08/07 01:21:06;;;;;;;0.97;0.97;;;;;;;20.37;75.66;95985.41;4290535;33;20186;-59
2022/08/07 01:23:32;;;;;;;1.17;1.17;;;;;;;20.38;75.41;95997.75;4282637;33;20206;-59
2022/08/07 01:25:58;;;;;;;1.23;1.23;;;;;;;20.40;75.69;96000.13;4276662;33;20202;-59
2022/08/07 01:28:23;;;;;;;0.90;0.90;;;;;;;20.39;75.55;95987.75;4283368;33;20206;-60
2022/08/07 01:30:49;;;;;;;0.57;0.57;;;;;;;20.53;76.18;95991.69;4288424;33;20224;-63
2022/08/07 01:33:15;;;;;;;0.60;0.60;;;;;;;20.49;75.98;95990.78;4293353;33;20182;-59
2022/08/07 01:35:41;;;;;;;1.23;1.23;;;;;;;20.62;75.42;95993.44;4285878;33;20202;-59
2022/08/07 01:38:07;;;;;;;1.30;1.20;;;;;;;20.64;74.55;95981.19;4292028;33;20222;-59
2022/08/07 01:40:33;;;;;;;1.00;1.00;;;;;;;20.56;74.75;95988.31;4273900;33;20244;-59
2022/08/07 01:42:59;;;;;;;0.50;0.50;;;;;;;20.37;74.82;95985.41;4295742;33;20191;-59
2022/08/07 01:45:25;;;;;;;0.90;0.90;;;;;;;20.39;75.66;95988.53;4288330;33;20198;-59
2022/08/07 01:47:51;;;;;;;0.93;0.93;;;;;;;20.42;75.13;95979.78;4275457;33;20205;-59
2022/08/07 01:50:16;;;;;;;0.77;0.77;;;;;;;20.50;75.48;95976.19;4288536;33;20261;-59
2022/08/07 01:52:45;;;;;;;0.67;0.67;;;;;;;20.50;75.26;95983.47;4287150;33;20195;-59
2022/08/07 01:55:11;;;;;;;0.53;0.53;;;;;;;20.57;75.31;95979.09;4279260;33;20187;-59
2022/08/07 01:57:40;;;;;;;0.93;0.93;;;;;;;20.50;74.81;95984.28;4291707;33;20199;-59
2022/08/07 02:00:12;;;;;;;1.03;1.03;;;;;;;20.41;75.38;95967.44;4285862;33;20265;-59
2022/08/07 02:02:43;;;;;;;1.13;1.13;;;;;;;20.42;75.88;95974.38;4286153;33;20194;-59
2022/08/07 02:05:20;;;;;;;1.17;1.17;;;;;;;20.34;76.18;95969.13;4284794;33;20278;-59
2022/08/07 02:07:51;;;;;;;0.77;0.77;;;;;;;20.39;76.02;95966.97;4293775;33;20198;-59
2022/08/07 02:10:20;;;;;;;0.57;0.57;;;;;;;20.51;76.04;95963.50;4276840;33;20210;-59
2022/08/07 02:12:47;;;;;;;1.00;1.00;;;;;;;20.54;75.86;95966.28;4291538;33;20199;-59
2022/08/07 02:15:13;;;;;;;1.83;0.70;;;;;;;20.42;75.10;95966.31;4283815;33;20210;-59
2022/08/07 02:17:41;;;;;;;1.17;1.17;;;;;;;20.53;75.38;95959.34;4271911;33;20297;-59
2022/08/07 02:20:08;;;;;;;0.73;0.73;;;;;;;20.48;75.53;95959.56;4283035;33;20213;-59
2022/08/07 02:22:37;;;;;;;0.67;0.67;;;;;;;20.59;74.94;95960.63;4293414;33;20217;-59
2022/08/07 02:25:05;;;;;;;1.30;1.30;;;;;;;20.52;73.73;95959.66;4283479;33;20245;-59
2022/08/07 02:27:32;;;;;;;0.73;0.73;;;;;;;20.52;74.79;95960.47;4287802;33;20270;-60
2022/08/07 02:29:59;;;;;;;0.43;0.43;;;;;;;20.38;74.11;95960.00;4292225;33;20206;-59
2022/08/07 02:32:26;;;;;;;0.50;0.50;;;;;;;20.44;74.82;95958.66;4294462;33;20194;-60
2022/08/07 02:34:55;;;;;;;0.67;0.67;;;;;;;20.40;74.15;95954.28;4272952;33;20203;-60
2022/08/07 02:37:22;;;;;;;0.73;0.67;;;;;;;20.48;74.26;95950.69;4296494;33;20191;-59
2022/08/07 02:39:48;;;;;;;0.67;0.67;;;;;;;20.49;73.96;95944.97;4298502;33;20241;-59
2022/08/07 02:42:14;;;;;;;0.60;0.60;;;;;;;20.28;73.81;95948.91;4272391;33;20204;-59
2022/08/07 02:44:43;;;;;;;0.60;0.60;;;;;;;20.33;73.68;95943.28;4274981;33;20227;-59
2022/08/07 02:47:10;;;;;;;0.67;0.67;;;;;;;20.39;74.44;95942.72;4273079;33;20195;-59
2022/08/07 02:49:36;;;;;;;1.00;1.00;;;;;;;20.33;75.16;95941.38;4290398;33;20213;-58
2022/08/07 02:52:04;;;;;;;0.77;0.77;;;;;;;20.27;74.73;95939.25;4271247;33;20198;-59
2022/08/07 02:54:32;;;;;;;0.50;0.50;;;;;;;20.24;75.42;95943.41;4284893;33;20195;-59
2022/08/07 02:57:01;;;;;;;1.93;0.97;;;;;;;20.25;75.84;95942.28;4264767;33;20197;-59
2022/08/07 02:59:28;;;;;;;1.53;1.43;;;;;;;20.20;76.02;95942.50;4284231;33;20214;-59
2022/08/07 03:01:55;;;;;;;0.93;0.93;;;;;;;20.35;75.81;95944.53;4283993;33;20194;-59
2022/08/07 03:04:22;;;;;;;0.80;0.80;;;;;;;20.30;76.15;95942.06;4285342;33;20198;-60
2022/08/07 03:06:49;;;;;;;1.07;1.07;;;;;;;20.32;76.06;95944.41;4300964;33;20208;-58
2022/08/07 03:09:17;;;;;;;0.67;0.67;;;;;;;20.22;76.31;95945.66;4277648;33;20198;-59
2022/08/07 03:11:43;;;;;;;0.50;0.50;;;;;;;20.11;77.14;95944.56;4286873;33;20205;-59
2022/08/07 03:14:09;;;;;;;0.93;0.93;;;;;;;20.15;77.10;95940.84;4276101;33;20199;-59
2022/08/07 03:16:35;;;;;;;1.20;1.20;;;;;;;20.20;76.78;95942.50;4274280;33;20234;-59
2022/08/07 03:19:00;;;;;;;1.07;1.07;;;;;;;20.08;76.80;95939.84;4293662;33;20206;-59
2022/08/07 03:21:26;;;;;;;1.50;1.50;;;;;;;19.95;77.21;95947.16;4272310;33;20216;-59
2022/08/07 03:23:56;;;;;;;0.77;0.77;;;;;;;20.06;77.08;95939.37;4285954;33;20194;-60
2022/08/07 03:26:25;;;;;;;0.93;0.93;;;;;;;19.97;77.08;95944.88;4274013;33;20194;-60
2022/08/07 03:28:53;;;;;;;9.13;1.30;;;;;;;19.96;77.17;95947.91;4283940;33;20217;-60
2022/08/07 03:31:20;;;;;;;0.80;0.80;;;;;;;19.94;77.33;95945.59;4273480;33;20209;-59
2022/08/07 03:33:53;;;;;;;0.60;0.60;;;;;;;19.90;77.16;95945.47;4287157;33;20213;-59
2022/08/07 03:36:20;;;;;;;1.10;1.10;;;;;;;20.02;77.05;95943.88;4290091;33;20202;-63
2022/08/07 03:38:47;;;;;;;1.30;1.27;;;;;;;19.98;76.99;95954.53;4286760;33;20198;-58
2022/08/07 03:41:13;;;;;;;0.90;0.90;;;;;;;20.01;76.96;95945.78;4271810;33;20253;-59
2022/08/07 03:43:39;;;;;;;0.53;0.53;;;;;;;20.02;77.16;95946.56;4271560;33;20527;-59
2022/08/07 03:46:08;;;;;;;1.10;1.10;;;;;;;19.89;77.29;95949.28;4274113;33;20219;-59
2022/08/07 03:48:34;;;;;;;0.77;0.77;;;;;;;20.00;77.10;95949.59;4271428;33;20234;-59
2022/08/07 03:51:01;;;;;;;0.87;0.87;;;;;;;19.94;77.85;95952.88;4271858;33;20265;-59
2022/08/07 03:53:27;;;;;;;1.10;1.10;;;;;;;19.89;77.58;95949.28;4285442;33;20213;-59
2022/08/07 03:55:53;;;;;;;1.70;1.60;;;;;;;19.83;77.69;95941.75;4283844;33;20246;-59
2022/08/07 03:58:20;;;;;;;0.77;0.77;;;;;;;19.76;78.09;95936.13;4286887;33;20191;-62
2022/08/07 04:00:48;;;;;;;1.00;1.00;;;;;;;19.77;78.36;95935.78;4286117;33;20229;-59
2022/08/07 04:03:15;;;;;;;0.60;0.60;;;;;;;19.94;77.68;95940.19;4284150;33;20187;-59
2022/08/07 04:05:41;;;;;;;0.93;0.93;;;;;;;19.94;77.80;95925.94;4283428;33;20194;-59
2022/08/07 04:08:11;;;;;;;1.30;1.30;;;;;;;19.87;77.96;95929.19;4285575;33;20250;-59
2022/08/07 04:10:38;;;;;;;0.90;0.90;;;;;;;19.99;77.59;95942.62;4285457;33;20237;-59
2022/08/07 04:13:03;;;;;;;0.50;0.50;;;;;;;20.04;77.37;95939.72;4271724;33;20213;-59
2022/08/07 04:15:29;;;;;;;1.03;1.03;;;;;;;20.11;77.07;95928.38;4284310;33;20191;-59
2022/08/07 04:17:55;;;;;;;0.63;0.63;;;;;;;20.02;77.05;95930.41;4282701;33;20237;-59
2022/08/07 04:20:20;;;;;;;1.43;1.30;;;;;;;20.06;77.06;95934.78;4282859;33;20199;-60
2022/08/07 04:22:48;;;;;;;1.50;1.50;;;;;;;20.06;76.79;95939.37;4284573;33;20175;-59
2022/08/07 04:25:14;;;;;;;0.83;0.83;;;;;;;19.98;76.71;95937.59;4269326;33;20191;-59
2022/08/07 04:27:40;;;;;;;0.60;0.60;;;;;;;19.95;77.08;95940.97;4282844;33;20281;-58
2022/08/07 04:30:06;;;;;;;0.80;0.80;;;;;;;20.00;76.64;95940.72;4281743;33;20238;-59
2022/08/07 04:32:32;;;;;;;0.83;0.83;;;;;;;19.81;76.72;95936.69;4270847;33;20217;-59
2022/08/07 04:34:59;;;;;;;1.03;1.03;;;;;;;19.74;77.57;95941.88;4287753;33;20186;-59
2022/08/07 04:37:24;;;;;;;0.57;0.57;;;;;;;19.96;77.33;95939.81;4294295;33;20208;-59
2022/08/07 04:39:50;;;;;;;0.80;0.80;;;;;;;20.03;76.68;95946.22;4286953;33;20194;-60
2022/08/07 04:42:15;;;;;;;0.73;0.73;;;;;;;20.05;76.08;95941.28;4272706;33;20191;-59
2022/08/07 04:44:40;;;;;;;2.70;1.10;;;;;;;19.99;76.09;95945.34;4286476;33;20266;-59
2022/08/07 04:47:27;;;;;;;1.10;1.10;;;;;;;19.85;76.13;95942.19;4284491;33;20283;-58
2022/08/07 04:50:08;;;;;;;0.97;0.97;;;;;;;19.74;76.32;95941.09;4282904;33;20230;-59
2022/08/07 04:52:55;;;;;;;1.17;1.17;;;;;;;19.78;76.68;95942.75;4271339;33;20269;-59
2022/08/07 04:55:36;;;;;;;1.80;1.70;;;;;;;19.44;77.29;95941.25;4286631;33;20254;-60
2022/08/07 04:58:45;;;;;;;1.50;1.40;;;;;;;19.56;77.11;95938.59;4284548;33;20190;-59
2022/08/07 05:01:29;;;;;;;0.93;0.93;;;;;;;19.34;77.57;95938.19;4255084;33;20245;-59
2022/08/07 05:04:41;;;;;;;1.03;0.90;;;;;;;19.66;77.46;95937.38;4273073;33;20190;-60
2022/08/07 05:07:18;;;;;;;0.50;0.50;;;;;;;19.59;76.50;95941.75;4290345;33;20299;-59
2022/08/07 05:09:56;;;;;;;1.27;1.27;;;;;;;19.76;76.75;95945.00;4293492;33;20206;-59
2022/08/07 05:12:28;;;;;;;1.03;0.60;;;;;;;19.74;76.13;95941.09;4268393;33;20210;-59
2022/08/07 05:15:14;;;;;;;0.70;0.70;;;;;;;19.82;75.70;95940.97;4277379;33;20258;-59
2022/08/07 05:17:48;;;;;;;0.80;0.80;;;;;;;19.72;76.12;95948.72;4283461;33;20306;-59
2022/08/07 05:20:20;;;;;;;0.93;0.93;;;;;;;19.65;75.93;95938.50;4288535;33;20253;-58
2022/08/07 05:22:49;;;;;;;0.80;0.80;;;;;;;19.80;75.85;95937.81;4286548;33;20254;-58
2022/08/07 05:25:18;;;;;;;1.83;1.67;;;;;;;19.84;74.60;95944.13;4295629;33;20245;-59
2022/08/07 05:27:45;;;;;;;0.77;0.77;;;;;;;19.60;74.95;95944.09;4281029;33;20244;-59
2022/08/07 05:30:11;;;;;;;0.70;0.70;;;;;;;19.68;75.34;95943.22;4287708;33;20195;-59
2022/08/07 05:32:38;;;;;;;1.00;1.00;;;;;;;19.75;74.88;95946.13;4282223;33;20224;-58
2022/08/07 05:35:06;;;;;;;0.90;0.90;;;;;;;19.72;74.72;95943.34;4297761;33;20208;-59
2022/08/07 05:37:32;;;;;;;0.63;0.63;;;;;;;19.56;74.90;95940.50;4287175;33;20190;-59
2022/08/07 05:39:59;;;;;;;1.20;1.20;;;;;;;19.56;74.48;95946.66;4293583;33;20198;-59
2022/08/07 05:42:25;;;;;;;0.43;0.43;;;;;;;19.69;74.18;95950.19;4274374;33;20206;-59
2022/08/07 05:44:51;;;;;;;1.00;1.00;;;;;;;19.80;73.31;95939.72;4291288;33;20288;-60
2022/08/07 05:47:18;;;;;;;0.40;0.40;;;;;;;19.75;73.69;95948.81;4275109;33;20302;-58
2022/08/07 05:49:48;;;;;;;0.30;0.30;;;;;;;19.95;74.45;95946.37;4286889;33;20210;-58
2022/08/07 05:52:13;;;;;;;0.73;0.73;;;;;;;19.70;72.46;95951.75;4286555;33;20187;-59
2022/08/07 05:54:38;;;;;;;0.40;0.40;;;;;;;19.90;74.23;95950.06;4288413;33;21720;-59
2022/08/07 05:57:07;;;;;;;0.30;0.30;;;;;;;19.98;73.34;95949.16;4286565;33;20199;-59
2022/08/07 05:59:36;;;;;;;0.20;0.20;;;;;;;20.08;73.62;95946.00;4285813;33;20194;-59
2022/08/07 06:02:05;;;;;;;0.50;0.50;;;;;;;19.93;71.42;95949.41;4286605;33;20255;-59
2022/08/07 06:04:35;;;;;;;0.73;0.73;;;;;;;20.03;72.18;95948.13;4273001;33;20202;-59
2022/08/07 06:07:04;;;;;;;0.77;0.63;;;;;;;20.01;71.92;95940.41;4285033;33;20201;-58
2022/08/07 06:09:31;;;;;;;0.47;0.47;;;;;;;20.11;71.00;95949.94;4274363;33;20250;-59
2022/08/07 06:11:58;;;;;;;0.80;0.80;;;;;;;19.99;71.06;95952.63;4292196;33;20194;-59
2022/08/07 06:14:23;;;;;;;0.10;0.10;;;;;;;19.94;70.85;95950.19;4284472;33;20234;-60
2022/08/07 06:16:50;;;;;;;0.43;0.43;;;;;;;19.89;71.26;95954.66;4285713;33;20249;-59
2022/08/07 06:19:17;;;;;;;0.40;0.40;;;;;;;19.98;71.65;95946.44;4283544;33;20194;-59
2022/08/07 06:21:45;;;;;;;1.53;0.60;;;;;;;20.06;70.87;95947.47;4279949;33;20234;-59
2022/08/07 06:24:10;;;;;;;0.63;0.63;;;;;;;20.08;70.46;95950.62;4270174;33;20230;-58
2022/08/07 06:26:39;;;;;;;0.30;0.30;;;;;;;20.05;70.19;95954.75;4282664;33;20191;-59
2022/08/07 06:29:04;;;;;;;0.63;0.63;;;;;;;20.10;69.50;95948.38;4283176;33;20190;-59
2022/08/07 06:31:30;;;;;;;0.47;0.47;;;;;;;20.16;70.27;95947.03;4282954;33;20202;-60
2022/08/07 06:33:55;;;;;;;0.70;0.70;;;;;;;19.99;69.17;95942.62;4283221;33;20214;-59
2022/08/07 06:36:20;;;;;;;0.40;0.40;;;;;;;20.03;68.88;95945.44;4272554;33;20187;-60
2022/08/07 06:38:46;;;;;;;0.70;0.70;;;;;;;20.16;69.22;95938.94;4287325;33;20214;-59
2022/08/07 06:41:20;;;;;;;1.13;0.60;;;;;;;20.13;69.87;95947.69;4283843;33;20217;-58
2022/08/07 06:43:47;;;;;;;0.50;0.50;;;;;;;19.95;69.09;95954.44;4283127;33;20257;-58
2022/08/07 06:46:14;;;;;;;0.73;0.73;;;;;;;20.01;71.19;95947.69;4284372;33;20209;-59
2022/08/07 06:48:40;;;;;;;0.57;0.57;;;;;;;19.51;71.65;95946.13;4272760;33;20199;-59
2022/08/07 06:51:14;;;;;;;0.60;0.57;;;;;;;19.27;71.26;95951.44;4283566;33;20206;-59
2022/08/07 06:53:40;;;;;;;0.40;0.40;;;;;;;19.33;72.13;95956.25;4285451;33;20360;-59
2022/08/07 06:56:07;;;;;;;1.50;1.40;;;;;;;18.97;73.30;95959.63;4281877;33;20266;-60
2022/08/07 06:58:34;;;;;;;0.43;0.43;;;;;;;18.48;74.93;95954.00;4293152;33;20244;-59
2022/08/07 07:01:05;;;;;;;0.50;0.50;;;;;;;18.69;76.16;95948.66;4289301;33;20207;-59
2022/08/07 07:03:32;;;;;;;1.10;1.10;;;;;;;18.46;75.03;95944.69;4270087;33;20234;-59
2022/08/07 07:05:57;;;;;;;0.70;0.70;;;;;;;18.48;75.69;95945.94;4278998;33;20213;-59
2022/08/07 07:08:28;;;;;;;0.60;0.60;;;;;;;18.16;75.87;95946.63;4288938;33;20237;-60
2022/08/07 07:10:54;;;;;;;0.50;0.50;;;;;;;18.11;76.37;95942.22;4284510;33;20222;-60
2022/08/07 07:13:28;;;;;;;0.77;0.77;;;;;;;18.43;76.81;95943.44;4274853;33;20217;-59
2022/08/07 07:16:03;;;;;;;0.60;0.60;;;;;;;18.53;75.12;95948.41;4275679;33;20348;-60
2022/08/07 07:18:39;;;;;;;0.70;0.70;;;;;;;18.45;75.67;95943.91;4285263;33;20201;-59
2022/08/07 07:21:30;;;;;;;0.80;0.80;;;;;;;18.43;74.99;95953.41;4272888;33;20258;-59
2022/08/07 07:23:55;;;;;;;0.53;0.53;;;;;;;18.40;75.19;95954.84;4274229;33;20214;-60
2022/08/07 07:26:22;;;;;;;0.50;0.50;;;;;;;18.41;74.96;95939.50;4287220;33;20187;-61
2022/08/07 07:29:02;;;;;;;0.50;0.50;;;;;;;18.64;74.67;95945.38;4291021;33;20193;-60
2022/08/07 07:31:34;;;;;;;0.40;0.40;;;;;;;18.72;72.11;95936.44;4283526;33;20201;-59
2022/08/07 07:34:09;;;;;;;0.73;0.73;;;;;;;18.58;73.02;95934.00;4283587;33;20198;-60
2022/08/07 07:36:37;;;;;;;0.60;0.60;;;;;;;18.82;71.80;95934.12;4266279;33;20221;-60
2022/08/07 07:39:04;;;;;;;0.80;0.80;;;;;;;19.06;70.67;95919.19;4261139;33;20190;-60
2022/08/07 07:41:32;;;;;;;2.67;0.67;;;;;;;18.99;70.37;95927.00;4279890;33;20191;-61
2022/08/07 07:43:59;;;;;;;1.17;0.63;;;;;;;19.15;70.21;95927.94;4275114;33;20210;-60
2022/08/07 07:46:31;;;;;;;0.80;0.80;;;;;;;19.23;67.46;95925.19;4281559;33;20209;-60
2022/08/07 07:48:59;;;;;;;0.63;0.63;;;;;;;19.29;66.83;95933.03;4279627;33;20230;-60
2022/08/07 07:51:26;;;;;;;0.40;0.40;;;;;;;19.18;66.49;95917.31;4285674;33;20190;-63
2022/08/07 07:53:54;;;;;;;2.47;0.90;;;;;;;19.36;65.69;95930.56;4285580;33;20199;-63
2022/08/07 07:56:22;;;;;;;0.40;0.40;;;;;;;19.39;64.94;95925.31;4284155;33;20199;-62
2022/08/07 07:58:49;;;;;;;0.83;0.83;;;;;;;19.28;66.30;95923.41;4283307;33;20220;-62
2022/08/07 08:01:15;;;;;;;0.67;0.67;;;;;;;19.42;65.83;95929.25;4284754;33;20198;-62
2022/08/07 08:03:42;;;;;;;0.37;0.37;;;;;;;19.38;65.35;95929.13;4281876;33;20238;-62
2022/08/07 08:06:09;;;;;;;0.63;0.63;;;;;;;19.36;65.52;95925.19;4269372;33;20207;-62
2022/08/07 08:08:35;;;;;;;0.47;0.47;;;;;;;19.38;65.98;95928.34;4283123;33;20225;-63
2022/08/07 08:11:03;;;;;;;0.50;0.50;;;;;;;19.45;66.71;95921.28;4292988;33;20198;-62
2022/08/07 08:13:34;;;;;;;0.60;0.60;;;;;;;19.60;65.20;95914.47;4285890;33;20228;-63
2022/08/07 08:16:02;;;;;;;0.70;0.70;;;;;;;19.63;65.20;95916.50;4292683;33;20206;-62
2022/08/07 08:18:30;;;;;;;0.50;0.50;;;;;;;19.60;64.78;95929.84;4286045;33;20250;-63
2022/08/07 08:21:00;;;;;;;0.40;0.40;;;;;;;19.63;64.83;95929.97;4280822;33;20203;-62
2022/08/07 08:29:02;;;;;;;0.70;0.70;;;;;;;19.74;63.56;95922.25;4285072;33;20204;-59
2022/08/07 08:31:32;;;;;;;0.30;0.30;;;;;;;19.76;63.50;95922.66;4287358;33;20221;-58
2022/08/07 08:34:00;;;;;;;7.10;0.87;;;;;;;19.74;63.15;95933.00;4301120;33;20217;-58
2022/08/07 08:36:30;;;;;;;0.40;0.40;;;;;;;19.83;63.41;95925.59;4294245;33;20234;-59
2022/08/07 08:38:59;;;;;;;0.60;0.60;;;;;;;19.88;62.87;95923.47;4297739;33;20190;-57
2022/08/07 08:41:50;;;;;;;0.40;0.40;;;;;;;19.80;63.64;95934.34;4286224;33;20199;-57
2022/08/07 08:44:45;;;;;;;1.30;1.20;;;;;;;19.80;63.39;95924.34;4286552;33;20199;-55
2022/08/07 08:47:23;;;;;;;0.23;0.23;;;;;;;19.92;62.87;95920.09;4285055;33;20251;-58
2022/08/07 08:50:07;;;;;;;0.53;0.53;;;;;;;20.03;62.58;95915.81;4287652;33;20195;-60
2022/08/07 08:52:36;;;;;;;2.50;1.00;;;;;;;20.15;62.51;95921.19;4277109;33;20195;-57
2022/08/07 08:55:32;;;;;;;0.33;0.33;;;;;;;20.12;62.80;95909.19;4274269;33;20199;-58
2022/08/07 08:58:00;;;;;;;0.77;0.77;;;;;;;20.31;62.26;95916.66;4290001;33;20257;-59
2022/08/07 09:00:31;;;;;;;0.93;0.93;;;;;;;20.29;61.67;95921.63;4295811;33;20190;-58
2022/08/07 09:03:22;;;;;;;0.40;0.40;;;;;;;20.31;62.79;95921.28;4291768;33;20217;-58
2022/08/07 09:05:57;;;;;;;0.37;0.37;;;;;;;20.33;61.95;95919.03;4302158;33;20225;-57
2022/08/07 09:08:35;;;;;;;0.40;0.40;;;;;;;20.39;61.80;95906.91;4285816;33;20198;-58
2022/08/07 09:11:23;;;;;;;0.90;0.60;;;;;;;20.40;61.37;95916.56;4296886;33;20220;-58
2022/08/07 09:14:09;;;;;;;1.10;1.10;;;;;;;20.46;61.04;95913.28;4289931;33;20199;-57
2022/08/07 09:17:03;;;;;;;0.47;0.47;;;;;;;20.44;61.27;95912.06;4286944;33;20190;-56
2022/08/07 09:19:44;;;;;;;0.53;0.53;;;;;;;20.46;61.23;95934.06;4275805;33;20217;-58
2022/08/07 09:22:27;;;;;;;0.40;0.40;;;;;;;20.42;61.41;95925.09;4291295;33;20220;-58
2022/08/07 09:25:02;;;;;;;0.70;0.70;;;;;;;20.44;61.62;95901.28;4296259;33;20217;-59
2022/08/07 09:27:54;;;;;;;19.23;0.93;;;;;;;20.50;60.78;95908.78;4284845;33;20191;-57
2022/08/07 09:30:23;;;;;;;0.43;0.43;;;;;;;20.60;60.53;95907.50;4276678;33;20214;-58
2022/08/07 09:33:30;;;;;;;0.57;0.57;;;;;;;20.72;59.78;95906.69;4278113;33;20202;-58
2022/08/07 09:36:08;;;;;;;0.83;0.83;;;;;;;20.90;58.94;95918.75;4262373;33;20190;-56
2022/08/07 09:38:57;;;;;;;0.50;0.50;;;;;;;20.83;58.85;95910.44;4282102;33;20201;-58
2022/08/07 09:42:08;;;;;;;0.80;0.80;;;;;;;20.82;59.28;95919.66;4283854;33;20210;-58
2022/08/07 09:45:19;;;;;;;0.40;0.40;;;;;;;20.77;59.38;95912.62;4274699;33;20201;-57
2022/08/07 09:48:05;;;;;;;4.07;0.87;;;;;;;20.75;60.04;95912.19;4235396;33;20195;-58
2022/08/07 09:50:54;;;;;;;0.50;0.50;;;;;;;20.66;59.96;95894.56;4286519;33;20190;-56
2022/08/07 09:53:23;;;;;;;0.20;0.20;;;;;;;20.86;59.60;95901.66;4292295;33;20209;-64
2022/08/07 09:56:17;;;;;;;0.47;0.47;;;;;;;20.83;59.68;95899.66;4287636;33;20226;-58
2022/08/07 09:59:08;;;;;;;0.47;0.47;;;;;;;20.90;58.48;95889.84;4274446;33;20238;-58
2022/08/07 10:01:46;;;;;;;0.57;0.57;;;;;;;20.98;58.52;95887.34;4260101;33;20231;-58
2022/08/07 10:04:43;;;;;;;0.30;0.30;;;;;;;21.19;58.17;95888.69;4272730;33;20202;-57
2022/08/07 10:07:47;;;;;;;0.70;0.70;;;;;;;21.22;58.28;95896.09;4289044;33;20245;-57
2022/08/07 10:10:21;;;;;;;0.20;0.20;;;;;;;21.30;58.24;95890.88;4272474;33;20238;-57
2022/08/07 10:13:03;;;;;;;0.20;0.20;;;;;;;21.33;57.86;95898.28;4280060;33;20195;-58
2022/08/07 10:15:35;;;;;;;0.30;0.30;;;;;;;21.36;57.37;95886.81;4280157;33;20191;-57
2022/08/07 10:18:18;;;;;;;1.23;1.20;;;;;;;21.35;57.28;95899.53;4286202;33;20193;-57
2022/08/07 10:20:56;;;;;;;1.03;1.03;;;;;;;21.37;57.13;95891.84;4293556;33;20194;-57
2022/08/07 10:23:52;;;;;;;0.37;0.37;;;;;;;21.26;58.13;95886.19;4282455;33;20199;-58
2022/08/07 10:26:36;;;;;;;0.60;0.60;;;;;;;21.44;57.68;95877.72;4284216;33;20187;-58
2022/08/07 10:29:39;;;;;;;0.40;0.40;;;;;;;21.52;56.98;95876.78;4277021;33;20209;-57
2022/08/07 10:32:07;;;;;;;0.73;0.73;;;;;;;21.62;56.72;95873.53;4298077;33;20236;-58
2022/08/07 10:35:10;;;;;;;0.33;0.33;;;;;;;21.70;56.30;95866.38;4299993;33;20274;-57
2022/08/07 10:37:58;;;;;;;0.43;0.43;;;;;;;21.86;56.08;95873.31;4294167;33;20183;-58
2022/08/07 10:40:57;;;;;;;0.60;0.57;;;;;;;21.78;56.80;95879.72;4290512;33;20206;-58
2022/08/07 10:43:29;;;;;;;0.57;0.57;;;;;;;21.75;55.42;95874.22;4289183;33;20194;-58
2022/08/07 10:45:59;;;;;;;0.63;0.63;;;;;;;21.74;55.85;95878.84;4299020;33;20182;-57
2022/08/07 10:48:40;;;;;;;0.73;0.73;;;;;;;21.63;56.91;95872.41;4277340;33;20246;-58
2022/08/07 10:51:16;;;;;;;0.40;0.40;;;;;;;21.75;55.71;95874.22;4293310;33;20181;-58
2022/08/07 10:54:05;;;;;;;0.67;0.67;;;;;;;21.82;55.66;95867.06;4279803;33;20198;-56
2022/08/07 10:56:53;;;;;;;0.67;0.67;;;;;;;21.77;55.46;95872.75;4287299;33;20198;-57
2022/08/07 10:59:37;;;;;;;1.60;0.67;;;;;;;21.79;56.14;95873.19;4277781;33;20194;-56
2022/08/07 11:02:15;;;;;;;0.50;0.50;;;;;;;21.82;56.13;95856.25;4284107;33;20254;-58
2022/08/07 11:04:58;;;;;;;0.63;0.63;;;;;;;21.88;56.25;95862.94;4289593;33;20328;-57
2022/08/07 11:08:14;;;;;;;0.57;0.57;;;;;;;21.83;55.98;95871.31;4293818;33;20190;-58
2022/08/07 11:10:46;;;;;;;0.60;0.60;;;;;;;21.78;55.78;95863.50;4258652;33;20229;-58
2022/08/07 11:13:31;;;;;;;0.47;0.47;;;;;;;21.74;56.43;95865.34;4288868;33;20191;-56
2022/08/07 11:16:05;;;;;;;1.27;1.17;;;;;;;21.74;54.89;95862.66;4298789;33;20190;-58
2022/08/07 11:18:38;;;;;;;0.83;0.80;;;;;;;21.68;54.29;95858.62;4290138;33;20258;-56
2022/08/07 11:21:15;;;;;;;1.17;0.97;;;;;;;21.72;54.84;95862.22;4277106;33;20195;-58
2022/08/07 11:24:13;;;;;;;0.50;0.50;;;;;;;21.74;54.65;95865.34;4283354;33;20293;-58
2022/08/07 11:26:49;;;;;;;0.10;0.10;;;;;;;21.66;55.17;95852.00;4274480;33;20191;-56
2022/08/07 11:29:55;;;;;;;0.87;0.87;;;;;;;21.70;54.45;95845.56;4283748;33;20194;-59
2022/08/07 11:32:44;;;;;;;0.37;0.37;;;;;;;21.80;54.64;95850.44;4278794;33;20194;-63
2022/08/07 11:35:14;;;;;;;0.63;0.63;;;;;;;21.92;54.84;95858.41;4284267;33;20248;-58
2022/08/07 11:38:00;;;;;;;2.50;1.33;;;;;;;21.90;54.76;95839.06;4285174;33;20198;-58
2022/08/07 11:40:34;;;;;;;0.60;0.60;;;;;;;21.95;54.83;95841.50;4285539;33;20209;-58
2022/08/07 11:43:05;;;;;;;0.37;0.37;;;;;;;21.88;53.57;95851.38;4292789;33;20228;-59
2022/08/07 11:45:49;;;;;;;0.57;0.57;;;;;;;21.70;55.20;95845.56;4278569;33;20209;-56
2022/08/07 11:48:24;;;;;;;0.87;0.87;;;;;;;21.75;55.09;95845.31;4278842;33;20212;-58
2022/08/07 11:51:14;;;;;;;0.47;0.47;;;;;;;21.73;55.31;95833.28;4288175;33;20202;-56
2022/08/07 11:53:56;;;;;;;0.77;0.77;;;;;;;21.83;55.64;95843.53;4274729;33;20198;-58
2022/08/07 11:56:21;;;;;;;0.60;0.60;;;;;;;21.84;55.49;95835.06;4283354;33;20265;-58
2022/08/07 11:59:10;;;;;;;0.60;0.60;;;;;;;21.93;55.75;95832.19;4289563;33;20195;-56
2022/08/07 12:01:52;;;;;;;0.90;0.80;;;;;;;22.15;55.15;95841.56;4276296;33;20209;-58
2022/08/07 12:04:45;;;;;;;0.50;0.50;;;;;;;21.99;55.06;95828.06;4285538;33;20222;-56